MET'MAP v2.0
soon released !

Expected late october,
this new version will be
more efficient, smarter,
and hosted on a brand new
server x3 powerfull...
...and still free !


Not compatible ?
Try the mobile version !

LOG IN : | Subscribe | Disclaimer | Who is Orbifly ? |
ICAO code :

TAF - EGLF Farnborough - 28 Jan 2020 13:37 UTC
Data Sources :     NOAA   


- Airport Elevation : 238 ft
- IATA code : FAB
- No reported NOTAMs.


EGLF - Farnborough

Latest METAR recorded : 2015/08/11 07:50 EGLF 110750Z VRB01KT 9999 FEW035 14/11 Q1019
TAF TAF EGLF
Valid from the 28 at 12:00 until the 28 at 21:00 UTC


281100Z 2812/2821 25013KT 9999 FEW020
PROB30
TEMPO 2812/2818 26015G25KT 8000 -SHRA

Source NOAA
ATIS : +44 09063 800 400 (*282)


MET'MAP, your aeronautical weather chart ! - Copyright ORBIFLY December 2007

Programming & Development : Alexandra Zaïnal
Co-Developer : Marc-Olivier Méhu
Technical & hardware support : Manuel Goepfert
Concept & Financing : Baudouin d'Aumeries